Time;durP1;ratioP1;P1;durP2;ratioP2;P2;SDS_P1;SDS_P2;PMS_P1;PMS_P2;Temp;Humidity;BMP_temperature;BMP_pressure;BME280_temperature;BME280_humidity;BME280_pressure;Samples;Min_cycle;Max_cycle;Signal;HPM_P1;HPM_P2
2022/05/14 00:00:42;;;;;;;0.30;0.20;;;13.20;99.90;;;;;;5069205;28;20462;-91
2022/05/14 00:03:10;;;;;;;0.30;0.20;;;13.10;99.90;;;;;;5067667;28;20542;-91
2022/05/14 00:05:39;;;;;;;0.30;0.20;;;13.10;99.90;;;;;;5068771;28;20818;-91
2022/05/14 00:08:07;;;;;;;0.30;0.20;;;13.10;99.90;;;;;;5067404;28;21042;-92
2022/05/14 00:13:03;;;;;;;0.30;0.20;;;13.10;99.90;;;;;;5068252;28;20541;-91
2022/05/14 00:13:21;;;;;;;0.30;0.20;;;13.10;99.90;;;;;;5066417;28;20614;-92
2022/05/14 00:15:48;;;;;;;0.30;0.20;;;13.00;99.90;;;;;;5067098;28;20512;-92
2022/05/14 00:18:15;;;;;;;0.30;0.10;;;13.00;99.90;;;;;;5066725;28;20469;-92
2022/05/14 00:20:44;;;;;;;0.30;0.20;;;13.00;99.90;;;;;;5069824;28;20477;-92
2022/05/14 00:23:11;;;;;;;0.30;0.20;;;12.90;99.90;;;;;;5068563;28;20492;-92
2022/05/14 00:25:38;;;;;;;0.30;0.20;;;12.90;99.90;;;;;;5070256;28;20504;-91
2022/05/14 00:28:06;;;;;;;0.30;0.20;;;12.70;99.90;;;;;;5072252;28;20477;-91
2022/05/14 00:30:33;;;;;;;0.30;0.20;;;12.70;99.90;;;;;;5069374;28;20546;-91
2022/05/14 00:33:00;;;;;;;0.30;0.20;;;12.70;99.90;;;;;;5067379;28;20958;-91
2022/05/14 00:35:27;;;;;;;0.30;0.20;;;12.70;99.90;;;;;;5064329;28;20527;-91
2022/05/14 00:37:56;;;;;;;0.30;0.20;;;12.70;99.90;;;;;;5074083;28;20444;-91
2022/05/14 00:40:27;;;;;;;0.30;0.17;;;12.70;99.90;;;;;;5072859;28;20527;-91
2022/05/14 00:42:55;;;;;;;0.30;0.20;;;12.60;99.90;;;;;;5063809;28;20935;-91
2022/05/14 00:45:22;;;;;;;0.30;0.20;;;12.60;99.90;;;;;;5068439;28;20475;-91
2022/05/14 00:47:54;;;;;;;0.30;0.20;;;12.60;99.90;;;;;;5064850;28;20511;-91
2022/05/14 00:50:26;;;;;;;0.30;0.20;;;12.60;99.90;;;;;;5065578;28;21358;-92
2022/05/14 00:53:02;;;;;;;0.30;0.20;;;12.60;99.90;;;;;;5084689;28;20461;-91
2022/05/14 00:55:30;;;;;;;0.30;0.17;;;12.50;99.90;;;;;;5090710;28;20481;-91
2022/05/14 00:57:57;;;;;;;1.43;1.33;;;12.50;99.90;;;;;;5077244;28;20456;-92
2022/05/14 01:00:25;;;;;;;0.30;0.20;;;12.50;99.90;;;;;;5077843;28;20468;-91
2022/05/14 01:02:53;;;;;;;0.30;0.20;;;12.50;99.90;;;;;;5073729;28;20455;-92
2022/05/14 01:05:23;;;;;;;0.30;0.20;;;12.40;99.90;;;;;;5068880;28;20460;-92
2022/05/14 01:07:52;;;;;;;0.30;0.20;;;12.40;99.90;;;;;;5068437;28;20553;-91
2022/05/14 01:10:24;;;;;;;0.30;0.20;;;12.40;99.90;;;;;;5070857;28;20475;-92
2022/05/14 01:12:53;;;;;;;0.30;0.20;;;12.50;99.90;;;;;;5067916;28;20523;-91
2022/05/14 01:15:23;;;;;;;0.30;0.20;;;12.50;99.90;;;;;;5071477;28;20465;-92
2022/05/14 01:17:51;;;;;;;0.30;0.20;;;12.50;99.90;;;;;;5067242;28;20459;-92
2022/05/14 01:20:19;;;;;;;0.30;0.20;;;12.40;99.90;;;;;;5069882;28;20958;-92
2022/05/14 01:22:59;;;;;;;0.30;0.20;;;12.40;99.90;;;;;;5067561;28;20489;-91
2022/05/14 01:28:20;;;;;;;0.30;0.20;;;12.20;99.90;;;;;;5069500;28;20463;-91
2022/05/14 01:30:51;;;;;;;0.30;0.20;;;12.20;99.90;;;;;;5068280;28;20466;-92
2022/05/14 01:33:19;;;;;;;0.30;0.20;;;12.20;99.90;;;;;;5067467;28;20479;-92
2022/05/14 01:35:46;;;;;;;0.30;0.20;;;12.10;99.90;;;;;;5069222;28;20479;-91
2022/05/14 01:38:13;;;;;;;0.30;0.20;;;12.00;99.90;;;;;;5070266;28;20992;-92
2022/05/14 01:40:40;;;;;;;0.30;0.20;;;12.00;99.90;;;;;;5074438;28;20464;-92
2022/05/14 01:43:07;;;;;;;0.30;0.20;;;11.90;99.90;;;;;;5068254;28;20469;-92
2022/05/14 01:45:36;;;;;;;0.30;0.20;;;11.90;99.90;;;;;;5067207;28;20989;-92
2022/05/14 01:48:03;;;;;;;0.30;0.20;;;11.90;99.90;;;;;;5070763;28;20457;-92
2022/05/14 01:50:31;;;;;;;0.30;0.20;;;11.70;99.90;;;;;;5073311;28;21001;-92
2022/05/14 01:52:58;;;;;;;0.30;0.20;;;11.70;99.90;;;;;;5070997;28;20535;-91
2022/05/14 01:55:25;;;;;;;0.30;0.20;;;11.80;99.90;;;;;;5069401;28;20512;-92
2022/05/14 01:57:52;;;;;;;0.30;0.20;;;11.70;99.90;;;;;;5066456;28;20465;-92
2022/05/14 02:00:21;;;;;;;0.30;0.20;;;11.60;99.90;;;;;;5072643;28;20473;-92
2022/05/14 02:02:50;;;;;;;0.30;0.20;;;11.60;99.90;;;;;;5066387;28;20453;-91
2022/05/14 02:05:17;;;;;;;0.30;0.20;;;11.60;99.90;;;;;;5069240;28;20553;-92
2022/05/14 02:07:44;;;;;;;0.30;0.20;;;11.60;99.90;;;;;;5071655;28;20472;-91
2022/05/14 02:10:12;;;;;;;0.30;0.20;;;11.50;99.90;;;;;;5069515;28;20466;-92
2022/05/14 02:12:40;;;;;;;0.30;0.20;;;11.60;99.90;;;;;;5068783;28;20449;-92
2022/05/14 02:15:08;;;;;;;0.30;0.20;;;11.40;99.90;;;;;;5063311;28;20514;-92
2022/05/14 02:17:35;;;;;;;0.30;0.20;;;11.30;99.90;;;;;;5066886;28;20532;-91
2022/05/14 02:20:04;;;;;;;0.30;0.20;;;11.30;99.90;;;;;;5068453;28;20463;-92
2022/05/14 02:22:31;;;;;;;0.30;0.20;;;11.30;99.90;;;;;;5072594;28;20527;-92
2022/05/14 02:24:58;;;;;;;0.30;0.20;;;11.40;99.90;;;;;;5068093;28;20515;-91
2022/05/14 02:27:25;;;;;;;0.30;0.10;;;11.60;99.90;;;;;;5066142;28;20905;-92
2022/05/14 02:29:54;;;;;;;0.30;0.20;;;11.60;99.90;;;;;;5067990;28;20473;-92
2022/05/14 02:32:23;;;;;;;0.30;0.20;;;11.80;99.90;;;;;;5072160;28;20516;-91
2022/05/14 02:34:51;;;;;;;0.30;0.20;;;11.90;99.90;;;;;;5067355;28;20796;-91
2022/05/14 02:37:21;;;;;;;0.30;0.10;;;11.80;99.90;;;;;;5066763;28;20492;-91
2022/05/14 02:39:48;;;;;;;0.30;0.20;;;11.80;99.90;;;;;;5079572;28;20468;-91
2022/05/14 02:42:15;;;;;;;0.30;0.20;;;11.90;99.90;;;;;;5086554;28;20468;-92
2022/05/14 02:44:42;;;;;;;0.30;0.20;;;11.90;99.90;;;;;;5083295;28;20464;-92
2022/05/14 02:47:10;;;;;;;0.30;0.20;;;11.90;99.90;;;;;;5082940;28;20464;-92
2022/05/14 02:49:37;;;;;;;0.30;0.20;;;11.90;99.90;;;;;;5088533;28;20959;-92
2022/05/14 02:52:06;;;;;;;0.30;0.20;;;12.00;99.90;;;;;;5086783;28;20459;-92
2022/05/14 02:54:35;;;;;;;0.30;0.20;;;12.10;99.90;;;;;;5090460;28;20486;-91
2022/05/14 02:57:02;;;;;;;0.30;0.20;;;12.10;99.90;;;;;;5073908;28;20710;-91
2022/05/14 02:59:29;;;;;;;0.30;0.20;;;12.10;99.90;;;;;;5067833;28;20936;-92
2022/05/14 03:01:56;;;;;;;0.30;0.20;;;12.10;99.90;;;;;;5072649;28;20891;-92
2022/05/14 03:04:26;;;;;;;0.30;0.20;;;12.00;99.90;;;;;;5071664;28;20860;-92
2022/05/14 03:06:54;;;;;;;0.30;0.20;;;12.10;99.90;;;;;;5080241;28;20456;-92
2022/05/14 03:09:21;;;;;;;0.30;0.10;;;12.00;99.90;;;;;;5086447;28;20524;-91
2022/05/14 03:11:50;;;;;;;0.30;0.20;;;12.00;99.90;;;;;;5081447;28;20518;-92
2022/05/14 03:14:18;;;;;;;0.30;0.20;;;11.90;99.90;;;;;;5086487;28;20472;-92
2022/05/14 03:16:45;;;;;;;0.30;0.20;;;11.80;99.90;;;;;;5085564;28;20541;-92
2022/05/14 03:19:13;;;;;;;0.33;0.23;;;11.90;99.90;;;;;;5079438;28;20456;-91
2022/05/14 03:21:40;;;;;;;0.30;0.20;;;11.70;99.90;;;;;;5066392;28;20856;-91
2022/05/14 03:24:08;;;;;;;0.30;0.20;;;11.70;99.90;;;;;;5064376;28;21063;-92
2022/05/14 03:26:35;;;;;;;0.30;0.20;;;11.70;99.90;;;;;;5086999;28;20439;-92
2022/05/14 03:29:03;;;;;;;0.30;0.17;;;11.80;99.90;;;;;;5094341;28;20485;-91
2022/05/14 03:31:32;;;;;;;0.30;0.20;;;11.80;99.90;;;;;;5078075;28;20446;-92
2022/05/14 03:33:59;;;;;;;0.30;0.20;;;11.90;99.90;;;;;;5066738;28;20558;-91
2022/05/14 03:36:27;;;;;;;0.30;0.20;;;12.00;99.90;;;;;;5071480;28;20476;-92
2022/05/14 03:38:54;;;;;;;0.30;0.10;;;12.10;99.90;;;;;;5067486;28;20474;-92
2022/05/14 03:41:21;;;;;;;0.30;0.20;;;12.10;99.90;;;;;;5067449;28;20463;-92
2022/05/14 03:43:49;;;;;;;0.30;0.20;;;12.20;99.90;;;;;;5065836;28;20501;-92
2022/05/14 03:46:18;;;;;;;0.30;0.20;;;12.20;99.90;;;;;;5069379;28;20526;-92
2022/05/14 03:48:45;;;;;;;0.30;0.20;;;12.20;99.90;;;;;;5069630;28;20464;-92
2022/05/14 03:51:12;;;;;;;0.30;0.20;;;12.20;99.90;;;;;;5062496;28;20560;-92
2022/05/14 03:53:40;;;;;;;0.30;0.10;;;12.20;99.90;;;;;;5090622;28;20468;-91
2022/05/14 03:56:07;;;;;;;0.30;0.20;;;12.30;99.90;;;;;;5086445;28;20482;-91
2022/05/14 03:58:35;;;;;;;0.30;0.20;;;12.40;99.90;;;;;;5090563;28;20459;-92
2022/05/14 04:01:02;;;;;;;0.30;0.20;;;12.50;99.90;;;;;;5095901;28;20524;-91
2022/05/14 04:03:32;;;;;;;0.30;0.20;;;12.50;99.90;;;;;;5081089;28;20834;-91
2022/05/14 04:05:59;;;;;;;0.30;0.20;;;12.60;99.90;;;;;;5070292;28;20485;-92
2022/05/14 04:08:27;;;;;;;0.30;0.20;;;12.70;99.90;;;;;;5068360;28;20556;-91
2022/05/14 04:10:54;;;;;;;0.30;0.20;;;12.60;99.90;;;;;;5063397;28;20577;-91
2022/05/14 04:13:21;;;;;;;0.30;0.17;;;12.60;99.90;;;;;;5070103;28;20867;-92
2022/05/14 04:15:48;;;;;;;0.30;0.20;;;12.60;99.90;;;;;;5073446;28;20907;-92
2022/05/14 04:18:15;;;;;;;0.30;0.20;;;12.70;99.90;;;;;;5067544;28;20484;-92
2022/05/14 04:20:44;;;;;;;0.30;0.20;;;12.60;99.90;;;;;;5067453;28;20518;-92
2022/05/14 04:23:11;;;;;;;0.30;0.20;;;12.60;99.90;;;;;;5064617;28;20734;-92
2022/05/14 04:25:38;;;;;;;0.30;0.20;;;12.60;99.90;;;;;;5079994;28;20525;-92
2022/05/14 04:28:05;;;;;;;0.30;0.10;;;12.70;99.90;;;;;;5063646;28;20831;-91
2022/05/14 04:30:32;;;;;;;0.30;0.20;;;12.80;99.90;;;;;;5065392;28;20517;-92
2022/05/14 04:32:59;;;;;;;0.30;0.20;;;12.80;99.90;;;;;;5071303;28;20597;-92
2022/05/14 04:35:26;;;;;;;0.30;0.20;;;12.80;99.90;;;;;;5075632;28;20915;-92
2022/05/14 04:37:54;;;;;;;0.30;0.20;;;13.10;99.90;;;;;;5071351;28;20481;-92
2022/05/14 04:40:21;;;;;;;0.30;0.20;;;13.40;99.90;;;;;;5073251;28;20473;-92
2022/05/14 04:42:49;;;;;;;0.30;0.20;;;13.70;99.90;;;;;;5068965;28;20500;-92
2022/05/14 04:45:16;;;;;;;0.30;0.20;;;13.90;99.90;;;;;;5075205;28;20470;-92
2022/05/14 04:47:43;;;;;;;0.30;0.20;;;14.00;99.90;;;;;;5072067;28;20879;-91
2022/05/14 04:50:13;;;;;;;0.30;0.20;;;14.10;99.90;;;;;;5066904;28;20880;-92
2022/05/14 04:52:40;;;;;;;0.30;0.20;;;14.10;99.90;;;;;;5071884;28;20465;-92
2022/05/14 04:55:10;;;;;;;0.30;0.20;;;14.20;99.90;;;;;;5074038;28;20470;-92
2022/05/14 04:57:38;;;;;;;0.30;0.20;;;14.20;99.90;;;;;;5074934;28;20483;-92
2022/05/14 05:00:06;;;;;;;0.30;0.20;;;14.10;99.90;;;;;;5066915;28;20465;-92
2022/05/14 05:05:18;;;;;;;0.30;0.20;;;14.20;99.90;;;;;;5078020;28;20461;-90
2022/05/14 05:07:46;;;;;;;0.30;0.20;;;14.10;99.90;;;;;;5080222;28;20458;-90
2022/05/14 05:10:15;;;;;;;0.30;0.20;;;14.00;99.90;;;;;;5078571;28;20519;-90
2022/05/14 05:12:41;;;;;;;0.30;0.20;;;14.10;99.90;;;;;;5076192;28;20470;-91
2022/05/14 05:15:09;;;;;;;0.30;0.20;;;14.10;99.90;;;;;;5068984;28;20962;-91
2022/05/14 05:17:36;;;;;;;0.30;0.20;;;14.20;99.90;;;;;;5069305;28;20973;-90
2022/05/14 05:20:04;;;;;;;0.30;0.20;;;14.20;99.90;;;;;;5077435;28;20474;-89
2022/05/14 05:22:31;;;;;;;0.30;0.20;;;14.30;99.90;;;;;;5078641;28;20551;-90
2022/05/14 05:24:58;;;;;;;0.30;0.20;;;14.30;99.90;;;;;;5086185;28;20465;-90
2022/05/14 05:27:27;;;;;;;0.30;0.20;;;14.40;99.90;;;;;;5070086;28;20788;-90
2022/05/14 05:29:53;;;;;;;0.30;0.20;;;14.30;99.90;;;;;;5067709;28;20463;-90
2022/05/14 05:32:20;;;;;;;0.30;0.20;;;14.40;99.90;;;;;;5081337;28;20531;-90
2022/05/14 05:34:48;;;;;;;0.30;0.20;;;14.40;99.90;;;;;;5084204;28;20476;-90
2022/05/14 05:37:15;;;;;;;0.30;0.20;;;14.30;99.90;;;;;;5077482;28;20489;-90
2022/05/14 05:39:42;;;;;;;0.30;0.20;;;14.30;99.90;;;;;;5074978;28;20461;-89
2022/05/14 05:42:09;;;;;;;0.30;0.20;;;14.40;99.90;;;;;;5078549;28;20559;-90
2022/05/14 05:44:38;;;;;;;0.30;0.20;;;14.50;99.90;;;;;;5068744;28;21070;-89
2022/05/14 05:47:06;;;;;;;0.30;0.20;;;14.50;99.90;;;;;;5072155;28;20462;-89
2022/05/14 05:49:33;;;;;;;0.30;0.20;;;14.50;99.90;;;;;;5081517;28;20559;-89
2022/05/14 05:52:01;;;;;;;0.30;0.20;;;14.60;99.90;;;;;;5071612;28;20462;-90
2022/05/14 05:57:12;;;;;;;0.30;0.20;;;14.60;99.90;;;;;;5068200;28;20490;-90
2022/05/14 05:59:40;;;;;;;0.30;0.20;;;14.70;99.90;;;;;;5067363;28;20526;-90
2022/05/14 06:02:08;;;;;;;0.30;0.20;;;14.90;99.90;;;;;;5066031;28;20475;-90
2022/05/14 06:04:35;;;;;;;0.30;0.20;;;15.00;99.90;;;;;;5069631;28;20451;-90
2022/05/14 06:07:02;;;;;;;0.30;0.20;;;15.00;99.90;;;;;;5079640;28;20512;-89
2022/05/14 06:09:30;;;;;;;0.30;0.20;;;15.00;99.90;;;;;;5072328;28;20458;-89
2022/05/14 06:11:58;;;;;;;0.30;0.20;;;15.10;99.90;;;;;;5080810;28;20476;-89
2022/05/14 06:14:25;;;;;;;0.30;0.20;;;15.20;99.90;;;;;;5065853;28;20970;-89
2022/05/14 06:16:54;;;;;;;0.30;0.20;;;15.40;99.90;;;;;;5070977;28;20827;-90
2022/05/14 06:19:21;;;;;;;0.30;0.20;;;15.70;99.90;;;;;;5070250;28;20532;-90
2022/05/14 06:21:48;;;;;;;0.30;0.20;;;15.80;99.90;;;;;;5068048;28;20476;-89
2022/05/14 06:24:15;;;;;;;0.30;0.20;;;16.10;99.90;;;;;;5069498;28;20556;-90
2022/05/14 06:26:42;;;;;;;0.30;0.20;;;16.20;99.90;;;;;;5074041;28;20884;-90
2022/05/14 06:29:10;;;;;;;0.30;0.20;;;16.00;99.90;;;;;;5072033;28;20886;-90
2022/05/14 06:31:38;;;;;;;0.30;0.20;;;16.00;99.90;;;;;;5073797;28;20470;-89
2022/05/14 06:34:07;;;;;;;0.30;0.20;;;15.80;99.90;;;;;;5066540;28;20475;-90
2022/05/14 06:36:34;;;;;;;0.30;0.20;;;15.80;99.90;;;;;;5072519;28;20530;-90
2022/05/14 06:39:02;;;;;;;0.30;0.20;;;15.90;99.90;;;;;;5070801;28;20488;-89
2022/05/14 06:41:29;;;;;;;0.30;0.20;;;15.90;99.90;;;;;;5071060;28;20904;-91
2022/05/14 06:43:57;;;;;;;0.30;0.20;;;16.00;99.90;;;;;;5069582;28;20460;-90
2022/05/14 06:46:24;;;;;;;0.30;0.20;;;16.30;99.90;;;;;;5071654;28;20935;-91
2022/05/14 06:48:51;;;;;;;0.30;0.20;;;16.40;99.90;;;;;;5072205;28;20917;-90
2022/05/14 06:51:24;;;;;;;0.30;0.20;;;16.40;99.90;;;;;;5070769;28;20459;-91
2022/05/14 06:53:53;;;;;;;0.30;0.20;;;16.30;99.90;;;;;;5068910;28;20463;-90
2022/05/14 06:56:21;;;;;;;0.30;0.20;;;16.30;99.90;;;;;;5082431;28;20490;-91
2022/05/14 06:58:51;;;;;;;0.30;0.20;;;16.60;99.90;;;;;;5088363;28;20487;-91
2022/05/14 07:01:19;;;;;;;0.30;0.20;;;16.70;99.90;;;;;;5093971;28;20575;-91
2022/05/14 07:06:44;;;;;;;0.30;0.20;;;16.90;99.90;;;;;;5071763;28;20465;-92
2022/05/14 07:09:13;;;;;;;0.30;0.20;;;17.10;99.90;;;;;;5076199;28;20495;-91
2022/05/14 07:11:41;;;;;;;0.30;0.20;;;17.20;99.90;;;;;;5073132;28;20455;-92
2022/05/14 07:14:10;;;;;;;0.30;0.20;;;17.30;99.90;;;;;;5066493;28;20998;-91
2022/05/14 07:16:37;;;;;;;0.30;0.20;;;17.40;99.90;;;;;;5065188;28;20836;-91
2022/05/14 07:19:06;;;;;;;0.30;0.20;;;17.60;99.90;;;;;;5065168;28;20551;-91
2022/05/14 07:21:36;;;;;;;0.30;0.20;;;17.60;99.90;;;;;;5066966;28;21143;-91
2022/05/14 07:24:05;;;;;;;0.30;0.20;;;17.70;99.90;;;;;;5070284;28;20487;-91
2022/05/14 07:26:34;;;;;;;0.30;0.20;;;17.80;99.90;;;;;;5071342;28;20467;-91
2022/05/14 07:29:01;;;;;;;0.30;0.20;;;17.90;99.90;;;;;;5074262;28;20436;-92
2022/05/14 07:31:29;;;;;;;0.30;0.20;;;17.90;99.90;;;;;;5094257;28;20463;-92
2022/05/14 07:33:56;;;;;;;0.30;0.20;;;17.60;99.90;;;;;;5100569;28;20454;-91
2022/05/14 07:36:25;;;;;;;0.30;0.20;;;17.60;99.90;;;;;;5099255;28;20444;-92
2022/05/14 07:38:56;;;;;;;0.30;0.20;;;17.80;99.90;;;;;;5087020;28;20851;-92
2022/05/14 07:41:24;;;;;;;0.30;0.20;;;18.00;99.90;;;;;;5075479;28;20481;-92
2022/05/14 07:43:54;;;;;;;0.30;0.20;;;18.20;99.90;;;;;;5087833;28;20457;-92
2022/05/14 07:46:27;;;;;;;0.30;0.20;;;18.10;99.90;;;;;;5085979;28;20532;-91
2022/05/14 07:48:57;;;;;;;0.30;0.20;;;18.40;99.90;;;;;;5084992;28;20481;-92
2022/05/14 07:51:25;;;;;;;0.30;0.20;;;18.70;99.90;;;;;;5079126;28;20870;-92
2022/05/14 07:53:54;;;;;;;0.30;0.20;;;18.80;99.90;;;;;;5073461;28;20486;-92
2022/05/14 07:56:21;;;;;;;0.30;0.20;;;18.50;99.90;;;;;;5069174;28;20481;-91
2022/05/14 07:58:48;;;;;;;0.30;0.20;;;18.60;99.90;;;;;;5083246;28;20568;-91
2022/05/14 08:01:16;;;;;;;0.30;0.20;;;19.00;99.90;;;;;;5071883;28;20473;-91
2022/05/14 08:03:43;;;;;;;0.30;0.20;;;19.20;99.90;;;;;;5069606;28;20465;-91
2022/05/14 08:06:11;;;;;;;0.30;0.20;;;19.50;99.90;;;;;;5063966;28;20579;-91
2022/05/14 08:08:38;;;;;;;0.30;0.20;;;19.70;99.90;;;;;;5069535;28;21002;-91
2022/05/14 08:11:06;;;;;;;0.30;0.20;;;19.70;99.90;;;;;;5082535;28;20470;-90
2022/05/14 08:13:34;;;;;;;0.30;0.20;;;19.50;99.90;;;;;;5085851;28;20961;-90
2022/05/14 08:16:02;;;;;;;0.30;0.20;;;19.50;99.90;;;;;;5064508;28;20457;-91
2022/05/14 08:18:30;;;;;;;0.30;0.20;;;19.50;99.90;;;;;;5077408;28;20618;-91
2022/05/14 08:24:29;;;;;;;0.30;0.20;;;19.60;99.90;;;;;;5072671;28;20475;-91
2022/05/14 08:26:30;;;;;;;0.30;0.20;;;19.90;99.90;;;;;;5070784;28;20458;-92
2022/05/14 08:28:57;;;;;;;0.30;0.20;;;19.50;99.20;;;;;;5067229;28;20464;-91
2022/05/14 08:31:24;;;;;;;0.30;0.20;;;19.70;99.90;;;;;;5071309;28;20548;-91
2022/05/14 08:33:51;;;;;;;0.40;0.20;;;19.70;99.50;;;;;;5078049;28;20471;-92
2022/05/14 08:36:18;;;;;;;0.30;0.20;;;19.70;97.80;;;;;;5064126;28;20459;-92
2022/05/14 08:38:45;;;;;;;0.40;0.20;;;19.80;96.10;;;;;;5064968;28;20500;-92
2022/05/14 08:41:15;;;;;;;0.40;0.20;;;20.20;97.30;;;;;;5066019;28;20475;-92
2022/05/14 08:43:47;;;;;;;0.40;0.20;;;20.10;98.10;;;;;;5070843;28;20637;-92
2022/05/14 08:46:18;;;;;;;0.30;0.20;;;20.20;96.40;;;;;;5073251;28;20463;-93
2022/05/14 08:48:50;;;;;;;0.37;0.20;;;20.40;94.50;;;;;;5073270;28;20484;-92
2022/05/14 08:51:19;;;;;;;0.40;0.20;;;20.40;95.20;;;;;;5074097;28;20452;-91
2022/05/14 08:53:49;;;;;;;0.40;0.20;;;20.40;94.00;;;;;;5069608;28;20547;-91
2022/05/14 08:56:36;;;;;;;0.40;0.20;;;20.50;95.80;;;;;;5081826;28;20464;-92
2022/05/14 08:59:39;;;;;;;0.40;0.30;;;20.70;95.70;;;;;;5076290;28;20815;-92
2022/05/14 09:02:13;;;;;;;0.40;0.20;;;20.60;93.50;;;;;;5065798;28;20575;-92
2022/05/14 09:04:40;;;;;;;0.30;0.20;;;20.80;94.50;;;;;;5071797;28;20475;-92
2022/05/14 09:07:07;;;;;;;0.40;0.20;;;21.20;92.90;;;;;;5064917;28;20470;-92
2022/05/14 09:09:34;;;;;;;0.40;0.20;;;21.40;93.00;;;;;;5065741;28;20467;-93
2022/05/14 09:12:04;;;;;;;0.40;0.20;;;21.70;92.30;;;;;;5072244;28;20471;-93
2022/05/14 09:14:36;;;;;;;0.40;0.20;;;21.80;90.10;;;;;;5071632;28;20467;-92
2022/05/14 09:17:13;;;;;;;0.40;0.20;;;21.50;85.60;;;;;;5075672;28;20471;-93
2022/05/14 09:19:43;;;;;;;0.40;0.20;;;21.50;83.60;;;;;;5079874;28;20575;-92
2022/05/14 09:22:14;;;;;;;0.40;0.20;;;21.70;81.60;;;;;;5070021;28;20475;-92
2022/05/14 09:24:45;;;;;;;0.40;0.20;;;21.90;73.80;;;;;;5072955;28;20473;-92
2022/05/14 09:27:14;;;;;;;0.40;0.20;;;21.60;77.00;;;;;;5068256;28;20473;-92
2022/05/14 09:29:45;;;;;;;0.40;0.20;;;21.50;79.90;;;;;;5070849;28;20463;-92
2022/05/14 09:32:34;;;;;;;0.40;0.20;;;21.60;82.90;;;;;;5067057;28;20470;-92
2022/05/14 09:35:12;;;;;;;0.40;0.20;;;21.60;81.20;;;;;;5069200;28;20530;-92
2022/05/14 09:37:41;;;;;;;0.40;0.20;;;21.40;73.20;;;;;;5070311;28;20514;-92
2022/05/14 09:40:13;;;;;;;0.40;0.20;;;21.60;74.80;;;;;;5065872;28;20473;-92
2022/05/14 09:42:44;;;;;;;0.40;0.20;;;22.10;87.30;;;;;;5076472;28;20462;-92
2022/05/14 09:45:23;;;;;;;0.40;0.20;;;22.30;79.70;;;;;;5072743;28;20462;-92
2022/05/14 09:47:52;;;;;;;0.40;0.20;;;22.50;78.80;;;;;;5075327;28;20470;-92
2022/05/14 09:50:23;;;;;;;0.40;0.20;;;22.20;72.90;;;;;;5093412;28;20455;-92
2022/05/14 09:52:59;;;;;;;0.40;0.20;;;22.20;68.70;;;;;;5093581;28;20489;-92
2022/05/14 09:55:46;;;;;;;0.40;0.20;;;22.20;66.80;;;;;;5100466;28;20454;-92
2022/05/14 09:58:20;;;;;;;0.40;0.20;;;22.00;71.10;;;;;;5096526;28;20466;-93
2022/05/14 10:00:58;;;;;;;0.40;0.20;;;21.90;76.60;;;;;;5080718;28;20459;-92
2022/05/14 10:03:55;;;;;;;0.40;0.20;;;22.00;73.40;;;;;;5080266;28;20524;-91
2022/05/14 10:06:33;;;;;;;0.40;0.20;;;21.50;70.10;;;;;;5071569;28;20467;-92
2022/05/14 10:09:12;;;;;;;0.40;0.20;;;21.40;72.20;;;;;;5073854;28;20915;-92
2022/05/14 10:11:44;;;;;;;0.40;0.20;;;21.20;74.00;;;;;;5067450;28;20458;-91
2022/05/14 10:14:30;;;;;;;0.40;0.20;;;21.50;72.70;;;;;;5071004;28;20477;-93
2022/05/14 10:17:15;;;;;;;0.40;0.20;;;21.30;70.10;;;;;;5071864;28;20860;-92
2022/05/14 10:20:12;;;;;;;0.40;0.20;;;21.40;70.00;;;;;;5067669;28;20490;-91
2022/05/14 10:28:42;;;;;;;0.40;0.20;;;21.60;64.90;;;;;;5095581;28;20565;-92
2022/05/14 10:31:14;;;;;;;0.40;0.20;;;21.60;71.80;;;;;;5081369;28;20469;-92
2022/05/14 10:33:42;;;;;;;0.40;0.20;;;21.70;71.10;;;;;;5074756;28;20497;-91
2022/05/14 10:36:20;;;;;;;0.40;0.20;;;21.60;69.40;;;;;;5068966;28;20645;-92
2022/05/14 10:38:50;;;;;;;0.40;0.20;;;21.80;71.20;;;;;;5077678;28;20549;-92
2022/05/14 10:41:28;;;;;;;0.40;0.20;;;22.10;70.00;;;;;;5069541;28;20463;-92
2022/05/14 10:43:58;;;;;;;0.40;0.20;;;21.90;67.20;;;;;;5070184;28;20466;-93
2022/05/14 10:46:29;;;;;;;0.40;0.20;;;22.10;74.30;;;;;;5074318;28;21001;-92
2022/05/14 10:48:59;;;;;;;0.40;0.20;;;22.00;66.20;;;;;;5070534;28;20532;-92
2022/05/14 10:51:30;;;;;;;0.40;0.20;;;22.00;65.30;;;;;;5073707;28;20471;-92
2022/05/14 10:53:58;;;;;;;0.40;0.20;;;22.40;70.70;;;;;;5070369;28;20535;-92
2022/05/14 10:56:28;;;;;;;0.40;0.20;;;22.00;64.80;;;;;;5074039;28;20485;-92
2022/05/14 10:59:05;;;;;;;0.40;0.20;;;22.30;64.10;;;;;;5073750;28;20494;-93
2022/05/14 11:01:36;;;;;;;0.40;0.20;;;22.40;68.90;;;;;;5068615;28;20466;-92
2022/05/14 11:04:15;;;;;;;0.40;0.20;;;22.10;70.70;;;;;;5075078;28;20470;-92
2022/05/14 11:06:54;;;;;;;0.40;0.20;;;21.70;64.80;;;;;;5074778;28;20467;-92
2022/05/14 11:09:24;;;;;;;0.40;0.20;;;21.60;66.90;;;;;;5065399;28;20838;-92
2022/05/14 11:11:56;;;;;;;0.40;0.20;;;22.00;71.50;;;;;;5078009;28;20489;-92
2022/05/14 11:14:23;;;;;;;0.40;0.20;;;22.30;66.00;;;;;;5070986;28;20924;-92
2022/05/14 11:16:52;;;;;;;0.40;0.20;;;22.20;68.80;;;;;;5077191;28;20478;-92
2022/05/14 11:19:27;;;;;;;0.40;0.20;;;22.50;71.40;;;;;;5067861;28;20491;-92
2022/05/14 11:21:56;;;;;;;0.40;0.20;;;22.60;68.70;;;;;;5082260;28;20447;-93
2022/05/14 11:24:34;;;;;;;0.40;0.20;;;22.40;63.70;;;;;;5096275;28;20491;-92
2022/05/14 11:27:02;;;;;;;0.40;0.20;;;22.40;65.00;;;;;;5096877;28;20463;-93
2022/05/14 11:29:31;;;;;;;0.40;0.20;;;22.40;63.30;;;;;;5093425;28;20455;-93
2022/05/14 11:32:06;;;;;;;0.40;0.20;;;22.60;67.80;;;;;;5094747;28;20486;-93
2022/05/14 11:34:33;;;;;;;0.40;0.20;;;22.60;71.30;;;;;;5091016;28;20598;-93
2022/05/14 11:37:05;;;;;;;0.40;0.20;;;22.60;68.60;;;;;;5076345;28;20936;-92
2022/05/14 11:39:35;;;;;;;0.40;0.20;;;22.70;68.20;;;;;;5079939;28;20512;-92
2022/05/14 11:42:13;;;;;;;0.40;0.20;;;22.70;64.30;;;;;;5081675;28;20462;-92
2022/05/14 11:44:47;;;;;;;0.40;0.20;;;22.80;77.10;;;;;;5069863;28;20463;-93
2022/05/14 11:48:01;;;;;;;0.40;0.20;;;23.10;73.10;;;;;;5073233;28;20804;-92
2022/05/14 11:50:33;;;;;;;0.40;0.20;;;22.80;67.00;;;;;;5069905;28;20728;-92
2022/05/14 11:53:17;;;;;;;0.40;0.20;;;23.10;74.20;;;;;;5067744;28;20496;-92
2022/05/14 11:55:49;;;;;;;0.40;0.20;;;23.20;73.20;;;;;;5071627;28;20459;-93
2022/05/14 11:58:22;;;;;;;0.40;0.20;;;23.40;69.60;;;;;;5076495;28;20804;-92
2022/05/14 12:00:52;;;;;;;0.40;0.20;;;23.30;73.80;;;;;;5077695;28;20454;-92
2022/05/14 12:03:23;;;;;;;0.40;0.20;;;23.10;67.50;;;;;;5089837;28;20486;-92
2022/05/14 12:05:55;;;;;;;0.40;0.20;;;23.00;70.30;;;;;;5094244;28;20449;-92
2022/05/14 12:08:57;;;;;;;0.40;0.20;;;23.10;69.80;;;;;;5095510;28;20484;-92
2022/05/14 12:11:32;;;;;;;0.40;0.20;;;23.10;70.60;;;;;;5101852;28;20523;-92
2022/05/14 12:14:07;;;;;;;0.40;0.20;;;23.40;72.20;;;;;;5092525;28;20520;-92
2022/05/14 12:16:37;;;;;;;0.40;0.20;;;22.80;67.60;;;;;;5079829;28;20470;-92
2022/05/14 12:19:07;;;;;;;0.40;0.20;;;22.90;67.20;;;;;;5068905;28;20483;-92
2022/05/14 12:21:35;;;;;;;0.40;0.20;;;23.20;69.10;;;;;;5072664;28;20709;-93
2022/05/14 12:24:04;;;;;;;0.40;0.20;;;23.20;64.50;;;;;;5067497;28;20500;-93
2022/05/14 12:26:34;;;;;;;0.40;0.20;;;23.00;66.80;;;;;;5068532;28;20516;-92
2022/05/14 12:29:12;;;;;;;0.40;0.20;;;23.20;69.80;;;;;;5067811;28;20460;-93
2022/05/14 12:34:34;;;;;;;0.40;0.20;;;23.40;67.20;;;;;;5072468;28;20469;-94
2022/05/14 12:37:03;;;;;;;0.40;0.20;;;23.70;68.10;;;;;;5071431;28;20535;-93
2022/05/14 12:39:34;;;;;;;0.40;0.20;;;23.80;66.70;;;;;;5065945;28;20950;-92
2022/05/14 12:42:05;;;;;;;0.40;0.20;;;23.80;62.80;;;;;;5092143;28;20463;-93
2022/05/14 12:44:36;;;;;;;0.40;0.20;;;23.50;62.30;;;;;;5095126;28;20489;-92
2022/05/14 12:47:05;;;;;;;0.40;0.20;;;23.40;61.80;;;;;;5078699;28;20456;-93
2022/05/14 12:49:36;;;;;;;0.40;0.20;;;23.30;63.30;;;;;;5072683;28;20459;-93
2022/05/14 12:52:08;;;;;;;0.40;0.20;;;23.40;62.90;;;;;;5078534;28;20532;-93
2022/05/14 12:54:48;;;;;;;0.40;0.20;;;23.10;60.00;;;;;;5082071;28;20471;-93
2022/05/14 12:57:15;;;;;;;0.40;0.20;;;22.80;60.60;;;;;;5081656;28;20895;-93
2022/05/14 12:59:42;;;;;;;0.40;0.20;;;22.90;61.20;;;;;;5075719;28;20874;-93
2022/05/14 13:02:17;;;;;;;0.40;0.20;;;23.20;66.90;;;;;;5076770;28;20533;-93
2022/05/14 13:04:48;;;;;;;0.40;0.20;;;23.40;65.50;;;;;;5072950;28;20531;-93
2022/05/14 13:07:16;;;;;;;0.40;0.20;;;23.30;59.80;;;;;;5076330;28;20522;-93
2022/05/14 13:09:45;;;;;;;0.40;0.20;;;23.60;63.20;;;;;;5076577;28;20458;-93
2022/05/14 13:12:18;;;;;;;0.40;0.20;;;23.60;64.60;;;;;;5080231;28;20471;-92
2022/05/14 13:14:52;;;;;;;0.40;0.20;;;23.40;64.10;;;;;;5080465;28;20460;-93
2022/05/14 13:17:19;;;;;;;0.40;0.20;;;23.50;58.60;;;;;;5075776;28;20524;-93
2022/05/14 13:19:48;;;;;;;0.40;0.20;;;23.20;59.90;;;;;;5074489;28;20479;-93
2022/05/14 13:22:33;;;;;;;0.40;0.20;;;23.30;64.20;;;;;;5081924;28;20471;-93
2022/05/14 13:25:20;;;;;;;0.40;0.20;;;23.60;62.20;;;;;;5074784;28;20451;-93